sensor_id;sensor_type;location;lat;lon;timestamp;temperature;humidity
35746;DHT22;21870;42.812;74.628;2024-03-02T00:00:10;-1.90;99.90
35746;DHT22;21870;42.812;74.628;2024-03-02T00:02:45;-1.80;99.90
35746;DHT22;21870;42.812;74.628;2024-03-02T00:05:19;-1.90;99.90
35746;DHT22;21870;42.812;74.628;2024-03-02T00:07:53;-1.90;99.90
35746;DHT22;21870;42.812;74.628;2024-03-02T00:10:24;-1.90;99.90
35746;DHT22;21870;42.812;74.628;2024-03-02T00:12:55;-1.90;99.90
35746;DHT22;21870;42.812;74.628;2024-03-02T00:15:39;-1.90;99.90
35746;DHT22;21870;42.812;74.628;2024-03-02T00:18:11;-1.70;99.90
35746;DHT22;21870;42.812;74.628;2024-03-02T00:20:39;-1.70;99.90
35746;DHT22;21870;42.812;74.628;2024-03-02T00:23:06;-1.60;99.90
35746;DHT22;21870;42.812;74.628;2024-03-02T00:25:52;-1.50;99.90
35746;DHT22;21870;42.812;74.628;2024-03-02T00:28:32;-1.50;99.90
35746;DHT22;21870;42.812;74.628;2024-03-02T00:31:06;-1.50;99.90
35746;DHT22;21870;42.812;74.628;2024-03-02T00:33:47;-1.50;99.90
35746;DHT22;21870;42.812;74.628;2024-03-02T00:36:24;-1.50;99.90
35746;DHT22;21870;42.812;74.628;2024-03-02T00:38:51;-1.40;99.90
35746;DHT22;21870;42.812;74.628;2024-03-02T00:41:30;-1.30;99.90
35746;DHT22;21870;42.812;74.628;2024-03-02T00:44:06;-1.20;99.90
35746;DHT22;21870;42.812;74.628;2024-03-02T00:46:35;-1.10;99.90
35746;DHT22;21870;42.812;74.628;2024-03-02T00:51:37;-1.10;99.90
35746;DHT22;21870;42.812;74.628;2024-03-02T00:54:09;-1.00;99.90
35746;DHT22;21870;42.812;74.628;2024-03-02T00:56:36;-0.90;99.90
35746;DHT22;21870;42.812;74.628;2024-03-02T00:59:02;-1.00;99.90
35746;DHT22;21870;42.812;74.628;2024-03-02T01:01:28;-1.00;99.90
35746;DHT22;21870;42.812;74.628;2024-03-02T01:03:54;-1.10;99.90
35746;DHT22;21870;42.812;74.628;2024-03-02T01:06:21;-1.00;99.90
35746;DHT22;21870;42.812;74.628;2024-03-02T01:08:48;-1.10;99.90
35746;DHT22;21870;42.812;74.628;2024-03-02T01:11:17;-1.00;99.90
35746;DHT22;21870;42.812;74.628;2024-03-02T01:13:46;-0.90;99.90
35746;DHT22;21870;42.812;74.628;2024-03-02T01:16:12;-0.80;99.90
35746;DHT22;21870;42.812;74.628;2024-03-02T01:18:39;-0.80;99.90
35746;DHT22;21870;42.812;74.628;2024-03-02T01:21:05;-0.90;99.90
35746;DHT22;21870;42.812;74.628;2024-03-02T01:23:31;-0.90;99.90
35746;DHT22;21870;42.812;74.628;2024-03-02T01:25:57;-0.90;99.90
35746;DHT22;21870;42.812;74.628;2024-03-02T01:28:23;-0.90;99.90
35746;DHT22;21870;42.812;74.628;2024-03-02T01:30:49;-0.90;99.90
35746;DHT22;21870;42.812;74.628;2024-03-02T01:33:19;-1.00;99.90
35746;DHT22;21870;42.812;74.628;2024-03-02T01:35:45;-1.10;99.90
35746;DHT22;21870;42.812;74.628;2024-03-02T01:38:11;-1.00;99.90
35746;DHT22;21870;42.812;74.628;2024-03-02T01:40:38;-1.00;99.90
35746;DHT22;21870;42.812;74.628;2024-03-02T01:43:05;-1.00;99.90
35746;DHT22;21870;42.812;74.628;2024-03-02T01:45:31;-1.00;99.90
35746;DHT22;21870;42.812;74.628;2024-03-02T01:47:58;-0.90;99.90
35746;DHT22;21870;42.812;74.628;2024-03-02T01:50:27;-1.00;99.90
35746;DHT22;21870;42.812;74.628;2024-03-02T01:52:55;-1.10;99.90
35746;DHT22;21870;42.812;74.628;2024-03-02T01:55:21;-1.00;99.90
35746;DHT22;21870;42.812;74.628;2024-03-02T01:57:48;-0.90;99.90
35746;DHT22;21870;42.812;74.628;2024-03-02T02:00:17;-0.90;99.90
35746;DHT22;21870;42.812;74.628;2024-03-02T02:02:43;-0.90;99.90
35746;DHT22;21870;42.812;74.628;2024-03-02T02:05:10;-0.90;99.90
35746;DHT22;21870;42.812;74.628;2024-03-02T02:07:36;-0.80;99.90
35746;DHT22;21870;42.812;74.628;2024-03-02T02:10:02;-0.70;99.90
35746;DHT22;21870;42.812;74.628;2024-03-02T02:12:28;-0.70;99.90
35746;DHT22;21870;42.812;74.628;2024-03-02T02:14:54;-0.60;99.90
35746;DHT22;21870;42.812;74.628;2024-03-02T02:17:20;-0.60;99.90
35746;DHT22;21870;42.812;74.628;2024-03-02T02:19:47;-0.50;99.90
35746;DHT22;21870;42.812;74.628;2024-03-02T02:22:13;-0.30;99.90
35746;DHT22;21870;42.812;74.628;2024-03-02T02:24:42;-0.30;99.90
35746;DHT22;21870;42.812;74.628;2024-03-02T02:27:09;-0.20;99.90
35746;DHT22;21870;42.812;74.628;2024-03-02T02:29:36;-0.20;99.90
35746;DHT22;21870;42.812;74.628;2024-03-02T02:32:02;-0.20;99.90
35746;DHT22;21870;42.812;74.628;2024-03-02T02:34:28;-0.20;99.90
35746;DHT22;21870;42.812;74.628;2024-03-02T02:36:55;-0.20;99.90
35746;DHT22;21870;42.812;74.628;2024-03-02T02:39:22;-0.10;99.90
35746;DHT22;21870;42.812;74.628;2024-03-02T02:41:48;-0.10;99.90
35746;DHT22;21870;42.812;74.628;2024-03-02T02:44:14;0.00;99.90
35746;DHT22;21870;42.812;74.628;2024-03-02T02:46:41;0.20;99.90
35746;DHT22;21870;42.812;74.628;2024-03-02T02:49:07;0.20;99.90
35746;DHT22;21870;42.812;74.628;2024-03-02T02:51:33;0.20;99.90
35746;DHT22;21870;42.812;74.628;2024-03-02T02:53:59;0.30;99.90
35746;DHT22;21870;42.812;74.628;2024-03-02T02:56:25;0.40;99.90
35746;DHT22;21870;42.812;74.628;2024-03-02T02:58:51;0.40;99.90
35746;DHT22;21870;42.812;74.628;2024-03-02T03:01:17;0.40;99.90
35746;DHT22;21870;42.812;74.628;2024-03-02T03:03:46;0.50;99.90
35746;DHT22;21870;42.812;74.628;2024-03-02T03:06:13;0.60;99.90
35746;DHT22;21870;42.812;74.628;2024-03-02T03:08:39;0.60;99.90
35746;DHT22;21870;42.812;74.628;2024-03-02T03:11:05;0.70;99.90
35746;DHT22;21870;42.812;74.628;2024-03-02T03:13:34;0.70;99.90
35746;DHT22;21870;42.812;74.628;2024-03-02T03:16:00;0.70;99.90
35746;DHT22;21870;42.812;74.628;2024-03-02T03:18:26;0.70;99.90
35746;DHT22;21870;42.812;74.628;2024-03-02T03:20:52;0.70;99.90
35746;DHT22;21870;42.812;74.628;2024-03-02T03:23:18;0.70;99.90
35746;DHT22;21870;42.812;74.628;2024-03-02T03:25:44;0.80;99.90
35746;DHT22;21870;42.812;74.628;2024-03-02T03:28:10;0.90;99.90
35746;DHT22;21870;42.812;74.628;2024-03-02T03:30:40;0.90;99.90
35746;DHT22;21870;42.812;74.628;2024-03-02T03:33:06;0.90;99.90
35746;DHT22;21870;42.812;74.628;2024-03-02T03:35:32;1.10;99.90
35746;DHT22;21870;42.812;74.628;2024-03-02T03:37:58;1.20;99.90
35746;DHT22;21870;42.812;74.628;2024-03-02T03:40:24;1.30;99.90
35746;DHT22;21870;42.812;74.628;2024-03-02T03:42:50;1.50;99.90
35746;DHT22;21870;42.812;74.628;2024-03-02T03:45:17;1.50;99.90
35746;DHT22;21870;42.812;74.628;2024-03-02T03:47:43;1.60;99.90
35746;DHT22;21870;42.812;74.628;2024-03-02T03:50:09;1.80;99.90
35746;DHT22;21870;42.812;74.628;2024-03-02T03:52:36;1.90;99.90
35746;DHT22;21870;42.812;74.628;2024-03-02T03:55:02;2.00;99.90
35746;DHT22;21870;42.812;74.628;2024-03-02T03:57:28;2.10;99.90
35746;DHT22;21870;42.812;74.628;2024-03-02T03:59:54;2.30;99.90
35746;DHT22;21870;42.812;74.628;2024-03-02T04:02:20;2.40;99.90
35746;DHT22;21870;42.812;74.628;2024-03-02T04:04:46;2.50;99.90
35746;DHT22;21870;42.812;74.628;2024-03-02T04:07:12;2.50;99.90
35746;DHT22;21870;42.812;74.628;2024-03-02T04:09:38;2.60;99.90
35746;DHT22;21870;42.812;74.628;2024-03-02T04:12:04;2.60;99.90
35746;DHT22;21870;42.812;74.628;2024-03-02T04:14:30;2.70;99.90
35746;DHT22;21870;42.812;74.628;2024-03-02T04:16:56;2.70;99.90
35746;DHT22;21870;42.812;74.628;2024-03-02T04:19:22;2.70;99.90
35746;DHT22;21870;42.812;74.628;2024-03-02T04:21:48;2.80;99.90
35746;DHT22;21870;42.812;74.628;2024-03-02T04:24:14;2.80;99.90
35746;DHT22;21870;42.812;74.628;2024-03-02T04:26:40;2.90;99.90
35746;DHT22;21870;42.812;74.628;2024-03-02T04:29:06;2.90;99.90
35746;DHT22;21870;42.812;74.628;2024-03-02T04:31:33;3.00;99.90
35746;DHT22;21870;42.812;74.628;2024-03-02T04:33:59;3.10;99.90
35746;DHT22;21870;42.812;74.628;2024-03-02T04:36:25;3.10;99.90
35746;DHT22;21870;42.812;74.628;2024-03-02T04:38:51;3.20;99.90
35746;DHT22;21870;42.812;74.628;2024-03-02T04:41:17;3.30;99.90
35746;DHT22;21870;42.812;74.628;2024-03-02T04:43:44;3.30;99.90
35746;DHT22;21870;42.812;74.628;2024-03-02T04:46:10;3.50;99.90
35746;DHT22;21870;42.812;74.628;2024-03-02T04:48:36;3.60;99.90
35746;DHT22;21870;42.812;74.628;2024-03-02T04:51:02;3.50;99.90
35746;DHT22;21870;42.812;74.628;2024-03-02T04:53:28;3.60;99.90
35746;DHT22;21870;42.812;74.628;2024-03-02T04:55:54;3.70;99.90
35746;DHT22;21870;42.812;74.628;2024-03-02T04:58:21;3.70;99.90
35746;DHT22;21870;42.812;74.628;2024-03-02T05:00:47;3.70;99.90
35746;DHT22;21870;42.812;74.628;2024-03-02T05:03:13;3.60;99.90
35746;DHT22;21870;42.812;74.628;2024-03-02T05:05:39;3.60;99.90
35746;DHT22;21870;42.812;74.628;2024-03-02T05:08:05;3.70;99.90
35746;DHT22;21870;42.812;74.628;2024-03-02T05:10:32;3.70;99.90
35746;DHT22;21870;42.812;74.628;2024-03-02T05:12:58;3.90;99.90
35746;DHT22;21870;42.812;74.628;2024-03-02T05:15:25;4.00;99.90
35746;DHT22;21870;42.812;74.628;2024-03-02T05:17:51;4.00;99.90
35746;DHT22;21870;42.812;74.628;2024-03-02T05:20:18;4.10;99.90
35746;DHT22;21870;42.812;74.628;2024-03-02T05:22:44;4.10;99.90
35746;DHT22;21870;42.812;74.628;2024-03-02T05:25:11;4.10;99.90
35746;DHT22;21870;42.812;74.628;2024-03-02T05:27:37;4.20;99.90
35746;DHT22;21870;42.812;74.628;2024-03-02T05:30:03;4.30;99.90
35746;DHT22;21870;42.812;74.628;2024-03-02T05:32:32;4.40;99.90
35746;DHT22;21870;42.812;74.628;2024-03-02T05:34:59;4.50;99.90
35746;DHT22;21870;42.812;74.628;2024-03-02T05:37:25;4.50;99.90
35746;DHT22;21870;42.812;74.628;2024-03-02T05:39:51;4.40;99.90
35746;DHT22;21870;42.812;74.628;2024-03-02T05:42:17;4.50;99.90
35746;DHT22;21870;42.812;74.628;2024-03-02T05:44:43;4.60;99.90
35746;DHT22;21870;42.812;74.628;2024-03-02T05:47:09;4.60;99.90
35746;DHT22;21870;42.812;74.628;2024-03-02T05:49:35;4.70;99.90
35746;DHT22;21870;42.812;74.628;2024-03-02T05:52:01;4.90;99.90
35746;DHT22;21870;42.812;74.628;2024-03-02T05:54:28;4.80;99.90
35746;DHT22;21870;42.812;74.628;2024-03-02T05:56:54;4.80;99.90
35746;DHT22;21870;42.812;74.628;2024-03-02T05:59:20;4.90;99.90
35746;DHT22;21870;42.812;74.628;2024-03-02T06:01:47;5.10;99.90
35746;DHT22;21870;42.812;74.628;2024-03-02T06:04:14;5.20;99.90
35746;DHT22;21870;42.812;74.628;2024-03-02T06:06:40;5.40;99.90
35746;DHT22;21870;42.812;74.628;2024-03-02T06:09:07;5.30;99.90
35746;DHT22;21870;42.812;74.628;2024-03-02T06:11:36;5.20;99.90
35746;DHT22;21870;42.812;74.628;2024-03-02T06:14:04;5.20;99.90
35746;DHT22;21870;42.812;74.628;2024-03-02T06:16:30;5.30;99.90
35746;DHT22;21870;42.812;74.628;2024-03-02T06:18:56;5.40;99.90
35746;DHT22;21870;42.812;74.628;2024-03-02T06:21:26;5.20;99.90
35746;DHT22;21870;42.812;74.628;2024-03-02T06:23:52;5.30;99.90
35746;DHT22;21870;42.812;74.628;2024-03-02T06:26:19;5.20;99.90
35746;DHT22;21870;42.812;74.628;2024-03-02T06:28:45;5.10;99.90
35746;DHT22;21870;42.812;74.628;2024-03-02T06:31:12;5.10;99.90
35746;DHT22;21870;42.812;74.628;2024-03-02T06:33:38;5.00;99.90
35746;DHT22;21870;42.812;74.628;2024-03-02T06:36:04;5.10;99.90
35746;DHT22;21870;42.812;74.628;2024-03-02T06:38:30;5.00;99.90
35746;DHT22;21870;42.812;74.628;2024-03-02T06:40:59;5.10;99.90
35746;DHT22;21870;42.812;74.628;2024-03-02T06:43:25;5.20;99.90
35746;DHT22;21870;42.812;74.628;2024-03-02T06:45:51;5.00;99.90
35746;DHT22;21870;42.812;74.628;2024-03-02T06:48:18;5.10;99.90
35746;DHT22;21870;42.812;74.628;2024-03-02T06:50:47;5.20;99.90
35746;DHT22;21870;42.812;74.628;2024-03-02T06:53:13;5.30;99.90
35746;DHT22;21870;42.812;74.628;2024-03-02T06:55:47;5.20;99.90
35746;DHT22;21870;42.812;74.628;2024-03-02T06:58:13;5.30;99.90
35746;DHT22;21870;42.812;74.628;2024-03-02T07:00:41;5.30;99.90
35746;DHT22;21870;42.812;74.628;2024-03-02T07:03:07;5.30;99.90
35746;DHT22;21870;42.812;74.628;2024-03-02T07:05:33;5.20;99.90
35746;DHT22;21870;42.812;74.628;2024-03-02T07:07:59;5.30;99.90
35746;DHT22;21870;42.812;74.628;2024-03-02T07:10:27;5.30;99.90
35746;DHT22;21870;42.812;74.628;2024-03-02T07:12:53;5.20;99.90
35746;DHT22;21870;42.812;74.628;2024-03-02T07:15:19;5.10;99.90
35746;DHT22;21870;42.812;74.628;2024-03-02T07:17:54;5.20;99.90
35746;DHT22;21870;42.812;74.628;2024-03-02T07:20:20;5.10;99.90
35746;DHT22;21870;42.812;74.628;2024-03-02T07:22:46;5.10;99.90
35746;DHT22;21870;42.812;74.628;2024-03-02T07:25:12;5.00;99.90
35746;DHT22;21870;42.812;74.628;2024-03-02T07:27:39;5.10;99.90
35746;DHT22;21870;42.812;74.628;2024-03-02T07:30:06;5.00;99.90
35746;DHT22;21870;42.812;74.628;2024-03-02T07:32:32;5.10;99.90
35746;DHT22;21870;42.812;74.628;2024-03-02T07:34:59;5.10;99.90
35746;DHT22;21870;42.812;74.628;2024-03-02T07:37:27;5.00;99.90
35746;DHT22;21870;42.812;74.628;2024-03-02T07:39:53;5.00;99.90
35746;DHT22;21870;42.812;74.628;2024-03-02T07:42:19;5.10;99.90
35746;DHT22;21870;42.812;74.628;2024-03-02T07:44:45;5.20;99.90
35746;DHT22;21870;42.812;74.628;2024-03-02T07:47:11;5.30;99.90
35746;DHT22;21870;42.812;74.628;2024-03-02T07:49:37;5.40;99.90
35746;DHT22;21870;42.812;74.628;2024-03-02T07:52:04;5.60;99.90
35746;DHT22;21870;42.812;74.628;2024-03-02T07:54:30;5.50;99.90
35746;DHT22;21870;42.812;74.628;2024-03-02T07:56:56;5.50;99.90
35746;DHT22;21870;42.812;74.628;2024-03-02T07:59:22;5.40;99.90
35746;DHT22;21870;42.812;74.628;2024-03-02T08:01:49;5.40;99.90
35746;DHT22;21870;42.812;74.628;2024-03-02T08:04:16;5.50;99.90
35746;DHT22;21870;42.812;74.628;2024-03-02T08:06:42;5.30;99.90
35746;DHT22;21870;42.812;74.628;2024-03-02T08:09:08;5.30;99.90
35746;DHT22;21870;42.812;74.628;2024-03-02T08:11:37;5.10;99.90
35746;DHT22;21870;42.812;74.628;2024-03-02T08:14:04;5.10;99.90
35746;DHT22;21870;42.812;74.628;2024-03-02T08:16:30;5.00;99.90
35746;DHT22;21870;42.812;74.628;2024-03-02T08:18:56;5.00;99.90
35746;DHT22;21870;42.812;74.628;2024-03-02T08:21:24;5.00;99.90
35746;DHT22;21870;42.812;74.628;2024-03-02T08:23:50;5.00;99.90
35746;DHT22;21870;42.812;74.628;2024-03-02T08:26:16;5.00;99.90
35746;DHT22;21870;42.812;74.628;2024-03-02T08:28:42;5.00;99.90
35746;DHT22;21870;42.812;74.628;2024-03-02T08:31:09;5.00;99.90
35746;DHT22;21870;42.812;74.628;2024-03-02T08:33:35;5.00;99.90
35746;DHT22;21870;42.812;74.628;2024-03-02T08:36:02;5.00;99.90
35746;DHT22;21870;42.812;74.628;2024-03-02T08:38:28;4.90;99.90
35746;DHT22;21870;42.812;74.628;2024-03-02T08:40:55;5.00;99.90
35746;DHT22;21870;42.812;74.628;2024-03-02T08:43:21;5.10;99.90
35746;DHT22;21870;42.812;74.628;2024-03-02T08:45:48;5.20;99.90
35746;DHT22;21870;42.812;74.628;2024-03-02T08:48:15;5.00;99.90
35746;DHT22;21870;42.812;74.628;2024-03-02T08:50:41;5.00;99.90
35746;DHT22;21870;42.812;74.628;2024-03-02T08:53:07;5.00;99.90
35746;DHT22;21870;42.812;74.628;2024-03-02T08:55:33;5.00;99.90
35746;DHT22;21870;42.812;74.628;2024-03-02T08:57:59;4.80;99.90
35746;DHT22;21870;42.812;74.628;2024-03-02T09:00:25;4.90;99.90
35746;DHT22;21870;42.812;74.628;2024-03-02T09:02:51;4.80;99.90
35746;DHT22;21870;42.812;74.628;2024-03-02T09:05:17;4.70;99.90
35746;DHT22;21870;42.812;74.628;2024-03-02T09:07:43;4.60;99.90
35746;DHT22;21870;42.812;74.628;2024-03-02T09:10:10;4.50;99.90
35746;DHT22;21870;42.812;74.628;2024-03-02T09:12:36;4.40;99.90
35746;DHT22;21870;42.812;74.628;2024-03-02T09:15:03;4.40;99.90
35746;DHT22;21870;42.812;74.628;2024-03-02T09:17:30;4.30;99.90
35746;DHT22;21870;42.812;74.628;2024-03-02T09:19:56;4.40;99.90
35746;DHT22;21870;42.812;74.628;2024-03-02T09:22:22;4.30;99.90
35746;DHT22;21870;42.812;74.628;2024-03-02T09:24:48;4.30;99.90
35746;DHT22;21870;42.812;74.628;2024-03-02T09:27:14;4.30;99.90
35746;DHT22;21870;42.812;74.628;2024-03-02T09:29:41;4.30;99.90
35746;DHT22;21870;42.812;74.628;2024-03-02T09:32:08;4.30;99.90
35746;DHT22;21870;42.812;74.628;2024-03-02T09:34:34;4.20;99.90
35746;DHT22;21870;42.812;74.628;2024-03-02T09:37:00;4.10;99.90
35746;DHT22;21870;42.812;74.628;2024-03-02T09:39:26;4.20;99.90
35746;DHT22;21870;42.812;74.628;2024-03-02T09:41:52;4.10;99.90
35746;DHT22;21870;42.812;74.628;2024-03-02T09:44:19;4.00;99.90
35746;DHT22;21870;42.812;74.628;2024-03-02T09:46:49;4.00;99.90
35746;DHT22;21870;42.812;74.628;2024-03-02T09:49:15;4.00;99.90
35746;DHT22;21870;42.812;74.628;2024-03-02T09:51:47;3.90;99.90
35746;DHT22;21870;42.812;74.628;2024-03-02T09:54:13;3.90;99.90
35746;DHT22;21870;42.812;74.628;2024-03-02T09:56:39;3.90;99.90
35746;DHT22;21870;42.812;74.628;2024-03-02T09:59:05;3.90;99.90
35746;DHT22;21870;42.812;74.628;2024-03-02T10:01:31;3.90;99.90
35746;DHT22;21870;42.812;74.628;2024-03-02T10:03:59;4.00;99.90
35746;DHT22;21870;42.812;74.628;2024-03-02T10:06:27;4.00;99.90
35746;DHT22;21870;42.812;74.628;2024-03-02T10:08:54;4.00;99.90
35746;DHT22;21870;42.812;74.628;2024-03-02T10:14:13;3.90;99.90
35746;DHT22;21870;42.812;74.628;2024-03-02T10:16:41;3.80;99.90
35746;DHT22;21870;42.812;74.628;2024-03-02T10:19:23;3.70;99.90
35746;DHT22;21870;42.812;74.628;2024-03-02T10:21:51;3.70;99.90
35746;DHT22;21870;42.812;74.628;2024-03-02T10:24:18;3.70;99.90
35746;DHT22;21870;42.812;74.628;2024-03-02T10:26:45;3.60;99.90
35746;DHT22;21870;42.812;74.628;2024-03-02T10:29:11;3.50;99.90
35746;DHT22;21870;42.812;74.628;2024-03-02T10:31:39;3.50;99.90
35746;DHT22;21870;42.812;74.628;2024-03-02T10:34:09;3.50;99.90
35746;DHT22;21870;42.812;74.628;2024-03-02T10:36:36;3.50;99.90
35746;DHT22;21870;42.812;74.628;2024-03-02T10:39:07;3.40;99.90
35746;DHT22;21870;42.812;74.628;2024-03-02T10:41:37;3.30;99.90
35746;DHT22;21870;42.812;74.628;2024-03-02T10:44:08;3.20;99.90
35746;DHT22;21870;42.812;74.628;2024-03-02T10:46:36;3.30;99.90
35746;DHT22;21870;42.812;74.628;2024-03-02T10:49:04;3.30;99.90
35746;DHT22;21870;42.812;74.628;2024-03-02T10:51:33;3.40;99.90
35746;DHT22;21870;42.812;74.628;2024-03-02T10:54:00;3.50;99.90
35746;DHT22;21870;42.812;74.628;2024-03-02T10:56:43;3.50;99.90
35746;DHT22;21870;42.812;74.628;2024-03-02T10:59:35;3.40;99.90
35746;DHT22;21870;42.812;74.628;2024-03-02T11:02:04;3.40;99.90
35746;DHT22;21870;42.812;74.628;2024-03-02T11:04:33;3.40;99.90
35746;DHT22;21870;42.812;74.628;2024-03-02T11:07:11;3.40;99.90
35746;DHT22;21870;42.812;74.628;2024-03-02T11:09:44;3.30;99.90
35746;DHT22;21870;42.812;74.628;2024-03-02T11:14:42;3.30;99.90
35746;DHT22;21870;42.812;74.628;2024-03-02T11:17:14;3.30;99.90
35746;DHT22;21870;42.812;74.628;2024-03-02T11:19:41;3.30;99.90
35746;DHT22;21870;42.812;74.628;2024-03-02T11:22:09;3.30;99.90
35746;DHT22;21870;42.812;74.628;2024-03-02T11:24:35;3.30;99.90
35746;DHT22;21870;42.812;74.628;2024-03-02T11:27:03;3.30;99.90
35746;DHT22;21870;42.812;74.628;2024-03-02T11:34:51;3.20;99.90
35746;DHT22;21870;42.812;74.628;2024-03-02T11:37:18;3.20;99.90
35746;DHT22;21870;42.812;74.628;2024-03-02T11:39:50;3.20;99.90
35746;DHT22;21870;42.812;74.628;2024-03-02T11:42:17;3.20;99.90
35746;DHT22;21870;42.812;74.628;2024-03-02T11:44:47;3.10;99.90
35746;DHT22;21870;42.812;74.628;2024-03-02T11:47:17;3.10;99.90
35746;DHT22;21870;42.812;74.628;2024-03-02T11:49:49;3.00;99.90
35746;DHT22;21870;42.812;74.628;2024-03-02T11:52:17;3.00;99.90
35746;DHT22;21870;42.812;74.628;2024-03-02T11:54:45;3.00;99.90
35746;DHT22;21870;42.812;74.628;2024-03-02T11:57:19;3.00;99.90
35746;DHT22;21870;42.812;74.628;2024-03-02T11:59:45;3.00;99.90
35746;DHT22;21870;42.812;74.628;2024-03-02T12:02:16;3.10;99.90
35746;DHT22;21870;42.812;74.628;2024-03-02T12:04:43;3.10;99.90
35746;DHT22;21870;42.812;74.628;2024-03-02T12:07:11;3.10;99.90
35746;DHT22;21870;42.812;74.628;2024-03-02T12:09:38;3.10;99.90
35746;DHT22;21870;42.812;74.628;2024-03-02T12:12:10;3.00;99.90
35746;DHT22;21870;42.812;74.628;2024-03-02T12:14:38;3.00;99.90
35746;DHT22;21870;42.812;74.628;2024-03-02T12:17:05;3.00;99.90
35746;DHT22;21870;42.812;74.628;2024-03-02T12:19:32;3.00;99.90
35746;DHT22;21870;42.812;74.628;2024-03-02T12:21:59;3.00;99.90
35746;DHT22;21870;42.812;74.628;2024-03-02T12:24:29;2.90;99.90
35746;DHT22;21870;42.812;74.628;2024-03-02T12:26:56;2.80;99.90
35746;DHT22;21870;42.812;74.628;2024-03-02T12:29:23;2.80;99.90
35746;DHT22;21870;42.812;74.628;2024-03-02T12:31:51;2.80;99.90
35746;DHT22;21870;42.812;74.628;2024-03-02T12:34:18;2.80;99.90
35746;DHT22;21870;42.812;74.628;2024-03-02T12:36:46;2.80;99.90
35746;DHT22;21870;42.812;74.628;2024-03-02T12:39:21;2.80;99.90
35746;DHT22;21870;42.812;74.628;2024-03-02T12:41:51;2.70;99.90
35746;DHT22;21870;42.812;74.628;2024-03-02T12:44:20;2.70;99.90
35746;DHT22;21870;42.812;74.628;2024-03-02T12:46:46;2.70;99.90
35746;DHT22;21870;42.812;74.628;2024-03-02T12:49:14;2.70;99.90
35746;DHT22;21870;42.812;74.628;2024-03-02T12:51:44;2.60;99.90
35746;DHT22;21870;42.812;74.628;2024-03-02T12:54:12;2.60;99.90
35746;DHT22;21870;42.812;74.628;2024-03-02T12:56:41;2.50;99.90
35746;DHT22;21870;42.812;74.628;2024-03-02T12:59:24;2.60;99.90
35746;DHT22;21870;42.812;74.628;2024-03-02T13:01:55;2.60;99.90
35746;DHT22;21870;42.812;74.628;2024-03-02T13:04:25;2.60;99.90
35746;DHT22;21870;42.812;74.628;2024-03-02T13:06:52;2.60;99.90
35746;DHT22;21870;42.812;74.628;2024-03-02T13:09:19;2.60;99.90
35746;DHT22;21870;42.812;74.628;2024-03-02T13:11:45;2.60;99.90
35746;DHT22;21870;42.812;74.628;2024-03-02T13:14:11;2.50;99.90
35746;DHT22;21870;42.812;74.628;2024-03-02T13:16:41;2.60;99.90
35746;DHT22;21870;42.812;74.628;2024-03-02T13:19:08;2.60;99.90
35746;DHT22;21870;42.812;74.628;2024-03-02T13:21:35;2.40;99.90
35746;DHT22;21870;42.812;74.628;2024-03-02T13:24:01;2.40;99.90
35746;DHT22;21870;42.812;74.628;2024-03-02T13:26:29;2.40;99.90
35746;DHT22;21870;42.812;74.628;2024-03-02T13:28:55;2.40;99.90
35746;DHT22;21870;42.812;74.628;2024-03-02T13:31:21;2.40;99.90
35746;DHT22;21870;42.812;74.628;2024-03-02T13:33:48;2.40;99.90
35746;DHT22;21870;42.812;74.628;2024-03-02T13:36:14;2.30;99.90
35746;DHT22;21870;42.812;74.628;2024-03-02T13:38:40;2.30;99.90
35746;DHT22;21870;42.812;74.628;2024-03-02T13:41:06;2.30;99.90
35746;DHT22;21870;42.812;74.628;2024-03-02T13:43:32;2.30;99.90
35746;DHT22;21870;42.812;74.628;2024-03-02T13:45:58;2.30;99.90
35746;DHT22;21870;42.812;74.628;2024-03-02T13:48:24;2.20;99.90
35746;DHT22;21870;42.812;74.628;2024-03-02T13:50:53;2.20;99.90
35746;DHT22;21870;42.812;74.628;2024-03-02T13:53:20;2.20;99.90
35746;DHT22;21870;42.812;74.628;2024-03-02T13:55:46;2.20;99.90
35746;DHT22;21870;42.812;74.628;2024-03-02T13:58:12;2.20;99.90
35746;DHT22;21870;42.812;74.628;2024-03-02T14:00:38;2.10;99.90
35746;DHT22;21870;42.812;74.628;2024-03-02T14:03:06;2.20;99.90
35746;DHT22;21870;42.812;74.628;2024-03-02T14:05:33;2.10;99.90
35746;DHT22;21870;42.812;74.628;2024-03-02T14:07:59;2.10;99.90
35746;DHT22;21870;42.812;74.628;2024-03-02T14:10:26;2.20;99.90
35746;DHT22;21870;42.812;74.628;2024-03-02T14:12:53;2.10;99.90
35746;DHT22;21870;42.812;74.628;2024-03-02T14:15:21;2.20;99.90
35746;DHT22;21870;42.812;74.628;2024-03-02T14:17:47;2.10;99.90
35746;DHT22;21870;42.812;74.628;2024-03-02T14:20:13;2.10;99.90
35746;DHT22;21870;42.812;74.628;2024-03-02T14:22:40;2.10;99.90
35746;DHT22;21870;42.812;74.628;2024-03-02T14:25:06;2.10;99.90
35746;DHT22;21870;42.812;74.628;2024-03-02T14:27:32;2.20;99.90
35746;DHT22;21870;42.812;74.628;2024-03-02T14:29:58;2.10;99.90
35746;DHT22;21870;42.812;74.628;2024-03-02T14:32:24;2.10;99.90
35746;DHT22;21870;42.812;74.628;2024-03-02T14:34:50;2.20;99.90
35746;DHT22;21870;42.812;74.628;2024-03-02T14:37:17;2.20;99.90
35746;DHT22;21870;42.812;74.628;2024-03-02T14:39:43;2.20;99.90
35746;DHT22;21870;42.812;74.628;2024-03-02T14:42:09;2.10;99.90
35746;DHT22;21870;42.812;74.628;2024-03-02T14:44:38;2.10;99.90
35746;DHT22;21870;42.812;74.628;2024-03-02T14:47:05;2.10;99.90
35746;DHT22;21870;42.812;74.628;2024-03-02T14:49:33;2.10;99.90
35746;DHT22;21870;42.812;74.628;2024-03-02T14:52:02;2.10;99.90
35746;DHT22;21870;42.812;74.628;2024-03-02T14:54:28;2.10;99.90
35746;DHT22;21870;42.812;74.628;2024-03-02T14:56:54;2.10;99.90
35746;DHT22;21870;42.812;74.628;2024-03-02T14:59:22;2.00;99.90
35746;DHT22;21870;42.812;74.628;2024-03-02T15:01:48;2.00;99.90
35746;DHT22;21870;42.812;74.628;2024-03-02T15:04:15;2.00;99.90
35746;DHT22;21870;42.812;74.628;2024-03-02T15:06:42;2.00;99.90
35746;DHT22;21870;42.812;74.628;2024-03-02T15:09:08;2.00;99.90
35746;DHT22;21870;42.812;74.628;2024-03-02T15:11:34;2.00;99.90
35746;DHT22;21870;42.812;74.628;2024-03-02T15:14:00;2.00;99.90
35746;DHT22;21870;42.812;74.628;2024-03-02T15:16:27;2.00;99.90
35746;DHT22;21870;42.812;74.628;2024-03-02T15:18:54;2.00;99.90
35746;DHT22;21870;42.812;74.628;2024-03-02T15:21:20;2.10;99.90
35746;DHT22;21870;42.812;74.628;2024-03-02T15:23:46;2.00;99.90
35746;DHT22;21870;42.812;74.628;2024-03-02T15:26:12;2.10;99.90
35746;DHT22;21870;42.812;74.628;2024-03-02T15:28:38;2.00;99.90
35746;DHT22;21870;42.812;74.628;2024-03-02T15:31:04;2.00;99.90
35746;DHT22;21870;42.812;74.628;2024-03-02T15:33:30;2.10;99.90
35746;DHT22;21870;42.812;74.628;2024-03-02T15:36:00;2.00;99.90
35746;DHT22;21870;42.812;74.628;2024-03-02T15:38:27;2.00;99.90
35746;DHT22;21870;42.812;74.628;2024-03-02T15:40:53;2.00;99.90